sensor_id;sensor_type;location;lat;lon;timestamp;P1;durP1;ratioP1;P2;durP2;ratioP2
9892;SDS011;4985;49.092;8.542;2023-08-24T00:00:32;4.05;;;3.10;;
9892;SDS011;4985;49.092;8.542;2023-08-24T00:03:00;3.58;;;2.83;;
9892;SDS011;4985;49.092;8.542;2023-08-24T00:05:28;2.90;;;2.60;;
9892;SDS011;4985;49.092;8.542;2023-08-24T00:07:54;5.43;;;2.85;;
9892;SDS011;4985;49.092;8.542;2023-08-24T00:10:21;3.37;;;2.75;;
9892;SDS011;4985;49.092;8.542;2023-08-24T00:12:48;3.03;;;2.72;;
9892;SDS011;4985;49.092;8.542;2023-08-24T00:15:16;4.50;;;2.70;;
9892;SDS011;4985;49.092;8.542;2023-08-24T00:17:43;4.90;;;2.75;;
9892;SDS011;4985;49.092;8.542;2023-08-24T00:20:10;4.70;;;3.25;;
9892;SDS011;4985;49.092;8.542;2023-08-24T00:22:37;4.32;;;2.95;;
9892;SDS011;4985;49.092;8.542;2023-08-24T00:25:05;4.80;;;3.00;;
9892;SDS011;4985;49.092;8.542;2023-08-24T00:27:32;5.97;;;2.75;;
9892;SDS011;4985;49.092;8.542;2023-08-24T00:29:59;3.40;;;2.50;;
9892;SDS011;4985;49.092;8.542;2023-08-24T00:32:27;3.42;;;2.83;;
9892;SDS011;4985;49.092;8.542;2023-08-24T00:34:53;2.90;;;2.55;;
9892;SDS011;4985;49.092;8.542;2023-08-24T00:37:21;7.03;;;2.80;;
9892;SDS011;4985;49.092;8.542;2023-08-24T00:39:48;2.65;;;2.40;;
9892;SDS011;4985;49.092;8.542;2023-08-24T00:42:14;4.45;;;2.78;;
9892;SDS011;4985;49.092;8.542;2023-08-24T00:44:41;3.00;;;2.70;;
9892;SDS011;4985;49.092;8.542;2023-08-24T00:47:08;6.40;;;2.55;;
9892;SDS011;4985;49.092;8.542;2023-08-24T00:49:36;3.20;;;2.62;;
9892;SDS011;4985;49.092;8.542;2023-08-24T00:52:03;3.72;;;2.67;;
9892;SDS011;4985;49.092;8.542;2023-08-24T00:54:30;4.55;;;3.00;;
9892;SDS011;4985;49.092;8.542;2023-08-24T00:56:56;4.62;;;2.50;;
9892;SDS011;4985;49.092;8.542;2023-08-24T00:59:23;2.97;;;2.42;;
9892;SDS011;4985;49.092;8.542;2023-08-24T01:01:50;5.57;;;2.90;;
9892;SDS011;4985;49.092;8.542;2023-08-24T01:04:17;2.90;;;2.40;;
9892;SDS011;4985;49.092;8.542;2023-08-24T01:06:45;4.55;;;2.83;;
9892;SDS011;4985;49.092;8.542;2023-08-24T01:09:12;5.47;;;2.60;;
9892;SDS011;4985;49.092;8.542;2023-08-24T01:11:42;5.78;;;3.05;;
9892;SDS011;4985;49.092;8.542;2023-08-24T01:14:17;5.60;;;3.28;;
9892;SDS011;4985;49.092;8.542;2023-08-24T01:16:50;4.55;;;3.30;;
9892;SDS011;4985;49.092;8.542;2023-08-24T01:19:25;4.15;;;2.90;;
9892;SDS011;4985;49.092;8.542;2023-08-24T01:22:02;3.58;;;2.87;;
9892;SDS011;4985;49.092;8.542;2023-08-24T01:24:36;4.22;;;2.87;;
9892;SDS011;4985;49.092;8.542;2023-08-24T01:27:09;4.72;;;2.95;;
9892;SDS011;4985;49.092;8.542;2023-08-24T01:29:37;3.95;;;2.90;;
9892;SDS011;4985;49.092;8.542;2023-08-24T01:32:05;6.93;;;3.00;;
9892;SDS011;4985;49.092;8.542;2023-08-24T01:34:36;3.78;;;2.75;;
9892;SDS011;4985;49.092;8.542;2023-08-24T01:37:03;5.78;;;2.87;;
9892;SDS011;4985;49.092;8.542;2023-08-24T01:39:31;5.35;;;2.85;;
9892;SDS011;4985;49.092;8.542;2023-08-24T01:42:05;5.45;;;2.62;;
9892;SDS011;4985;49.092;8.542;2023-08-24T01:44:38;3.53;;;2.78;;
9892;SDS011;4985;49.092;8.542;2023-08-24T01:47:08;4.00;;;2.65;;
9892;SDS011;4985;49.092;8.542;2023-08-24T01:49:37;2.85;;;2.60;;
9892;SDS011;4985;49.092;8.542;2023-08-24T01:52:06;5.15;;;2.80;;
9892;SDS011;4985;49.092;8.542;2023-08-24T01:54:34;3.45;;;3.00;;
9892;SDS011;4985;49.092;8.542;2023-08-24T01:57:04;4.85;;;2.83;;
9892;SDS011;4985;49.092;8.542;2023-08-24T01:59:32;4.90;;;2.90;;
9892;SDS011;4985;49.092;8.542;2023-08-24T02:01:59;3.75;;;3.28;;
9892;SDS011;4985;49.092;8.542;2023-08-24T02:04:25;3.80;;;3.10;;
9892;SDS011;4985;49.092;8.542;2023-08-24T02:06:52;5.18;;;3.22;;
9892;SDS011;4985;49.092;8.542;2023-08-24T02:09:18;3.37;;;3.05;;
9892;SDS011;4985;49.092;8.542;2023-08-24T02:11:45;5.68;;;3.25;;
9892;SDS011;4985;49.092;8.542;2023-08-24T02:14:11;3.67;;;2.62;;
9892;SDS011;4985;49.092;8.542;2023-08-24T02:16:39;3.72;;;2.60;;
9892;SDS011;4985;49.092;8.542;2023-08-24T02:19:06;5.78;;;2.80;;
9892;SDS011;4985;49.092;8.542;2023-08-24T02:21:34;5.10;;;2.55;;
9892;SDS011;4985;49.092;8.542;2023-08-24T02:24:01;3.10;;;2.80;;
9892;SDS011;4985;49.092;8.542;2023-08-24T02:26:28;4.75;;;2.95;;
9892;SDS011;4985;49.092;8.542;2023-08-24T02:28:54;3.37;;;2.78;;
9892;SDS011;4985;49.092;8.542;2023-08-24T02:31:21;4.75;;;2.92;;
9892;SDS011;4985;49.092;8.542;2023-08-24T02:33:49;6.70;;;3.28;;
9892;SDS011;4985;49.092;8.542;2023-08-24T02:36:15;4.10;;;3.10;;
9892;SDS011;4985;49.092;8.542;2023-08-24T02:38:42;4.10;;;3.22;;
9892;SDS011;4985;49.092;8.542;2023-08-24T02:41:09;3.30;;;3.00;;
9892;SDS011;4985;49.092;8.542;2023-08-24T02:43:36;3.80;;;3.03;;
9892;SDS011;4985;49.092;8.542;2023-08-24T02:46:03;3.28;;;2.97;;
9892;SDS011;4985;49.092;8.542;2023-08-24T02:48:33;3.83;;;2.80;;
9892;SDS011;4985;49.092;8.542;2023-08-24T02:51:02;6.68;;;2.80;;
9892;SDS011;4985;49.092;8.542;2023-08-24T02:53:30;3.30;;;2.83;;
9892;SDS011;4985;49.092;8.542;2023-08-24T02:55:57;6.45;;;3.08;;
9892;SDS011;4985;49.092;8.542;2023-08-24T02:58:24;4.47;;;2.65;;
9892;SDS011;4985;49.092;8.542;2023-08-24T03:00:50;4.00;;;2.85;;
9892;SDS011;4985;49.092;8.542;2023-08-24T03:03:17;7.28;;;2.92;;
9892;SDS011;4985;49.092;8.542;2023-08-24T03:05:52;5.85;;;2.85;;
9892;SDS011;4985;49.092;8.542;2023-08-24T03:08:21;3.60;;;3.10;;
9892;SDS011;4985;49.092;8.542;2023-08-24T03:10:47;6.82;;;3.20;;
9892;SDS011;4985;49.092;8.542;2023-08-24T03:13:14;4.72;;;2.87;;
9892;SDS011;4985;49.092;8.542;2023-08-24T03:15:40;5.68;;;2.67;;
9892;SDS011;4985;49.092;8.542;2023-08-24T03:18:08;3.65;;;2.70;;
9892;SDS011;4985;49.092;8.542;2023-08-24T03:20:35;3.58;;;2.67;;
9892;SDS011;4985;49.092;8.542;2023-08-24T03:23:02;5.32;;;3.10;;
9892;SDS011;4985;49.092;8.542;2023-08-24T03:25:30;3.33;;;2.87;;
9892;SDS011;4985;49.092;8.542;2023-08-24T03:27:57;3.70;;;2.95;;
9892;SDS011;4985;49.092;8.542;2023-08-24T03:30:24;6.32;;;3.42;;
9892;SDS011;4985;49.092;8.542;2023-08-24T03:32:50;4.37;;;3.47;;
9892;SDS011;4985;49.092;8.542;2023-08-24T03:35:17;5.10;;;3.00;;
9892;SDS011;4985;49.092;8.542;2023-08-24T03:37:43;4.47;;;3.28;;
9892;SDS011;4985;49.092;8.542;2023-08-24T03:40:11;5.28;;;3.17;;
9892;SDS011;4985;49.092;8.542;2023-08-24T03:42:39;5.85;;;3.15;;
9892;SDS011;4985;49.092;8.542;2023-08-24T03:45:06;3.17;;;2.53;;
9892;SDS011;4985;49.092;8.542;2023-08-24T03:47:33;4.43;;;2.85;;
9892;SDS011;4985;49.092;8.542;2023-08-24T03:49:59;4.87;;;2.97;;
9892;SDS011;4985;49.092;8.542;2023-08-24T03:52:26;4.20;;;3.15;;
9892;SDS011;4985;49.092;8.542;2023-08-24T03:54:53;4.18;;;3.25;;
9892;SDS011;4985;49.092;8.542;2023-08-24T03:57:20;4.37;;;3.20;;
9892;SDS011;4985;49.092;8.542;2023-08-24T03:59:47;5.15;;;3.33;;
9892;SDS011;4985;49.092;8.542;2023-08-24T04:02:14;4.68;;;3.53;;
9892;SDS011;4985;49.092;8.542;2023-08-24T04:04:41;6.75;;;3.15;;
9892;SDS011;4985;49.092;8.542;2023-08-24T04:07:07;4.00;;;3.45;;
9892;SDS011;4985;49.092;8.542;2023-08-24T04:09:34;6.00;;;3.55;;
9892;SDS011;4985;49.092;8.542;2023-08-24T04:12:00;5.93;;;3.37;;
9892;SDS011;4985;49.092;8.542;2023-08-24T04:14:27;5.37;;;3.03;;
9892;SDS011;4985;49.092;8.542;2023-08-24T04:16:55;4.45;;;3.12;;
9892;SDS011;4985;49.092;8.542;2023-08-24T04:19:21;3.65;;;3.17;;
9892;SDS011;4985;49.092;8.542;2023-08-24T04:21:48;5.03;;;3.15;;
9892;SDS011;4985;49.092;8.542;2023-08-24T04:24:15;4.55;;;3.30;;
9892;SDS011;4985;49.092;8.542;2023-08-24T04:26:41;8.20;;;3.40;;
9892;SDS011;4985;49.092;8.542;2023-08-24T04:29:08;7.57;;;3.10;;
9892;SDS011;4985;49.092;8.542;2023-08-24T04:31:34;6.65;;;3.20;;
9892;SDS011;4985;49.092;8.542;2023-08-24T04:34:03;4.68;;;3.53;;
9892;SDS011;4985;49.092;8.542;2023-08-24T04:36:30;4.80;;;3.10;;
9892;SDS011;4985;49.092;8.542;2023-08-24T04:38:56;4.55;;;3.30;;
9892;SDS011;4985;49.092;8.542;2023-08-24T04:41:23;7.90;;;3.53;;
9892;SDS011;4985;49.092;8.542;2023-08-24T04:43:50;5.35;;;3.25;;
9892;SDS011;4985;49.092;8.542;2023-08-24T04:46:16;4.03;;;3.30;;
9892;SDS011;4985;49.092;8.542;2023-08-24T04:48:43;3.87;;;3.40;;
9892;SDS011;4985;49.092;8.542;2023-08-24T04:51:11;5.53;;;3.17;;
9892;SDS011;4985;49.092;8.542;2023-08-24T04:53:37;4.22;;;3.62;;
9892;SDS011;4985;49.092;8.542;2023-08-24T04:56:04;5.97;;;2.83;;
9892;SDS011;4985;49.092;8.542;2023-08-24T04:58:32;5.22;;;3.42;;
9892;SDS011;4985;49.092;8.542;2023-08-24T05:00:59;4.82;;;3.40;;
9892;SDS011;4985;49.092;8.542;2023-08-24T05:03:26;4.65;;;3.15;;
9892;SDS011;4985;49.092;8.542;2023-08-24T05:05:52;3.42;;;2.70;;
9892;SDS011;4985;49.092;8.542;2023-08-24T05:08:20;5.05;;;3.15;;
9892;SDS011;4985;49.092;8.542;2023-08-24T05:10:47;5.82;;;2.97;;
9892;SDS011;4985;49.092;8.542;2023-08-24T05:13:13;3.87;;;3.15;;
9892;SDS011;4985;49.092;8.542;2023-08-24T05:15:40;6.43;;;3.50;;
9892;SDS011;4985;49.092;8.542;2023-08-24T05:18:06;5.50;;;3.40;;
9892;SDS011;4985;49.092;8.542;2023-08-24T05:20:33;4.75;;;3.37;;
9892;SDS011;4985;49.092;8.542;2023-08-24T05:22:59;4.10;;;2.95;;
9892;SDS011;4985;49.092;8.542;2023-08-24T05:25:27;4.85;;;3.53;;
9892;SDS011;4985;49.092;8.542;2023-08-24T05:27:54;5.80;;;3.40;;
9892;SDS011;4985;49.092;8.542;2023-08-24T05:30:20;6.90;;;3.25;;
9892;SDS011;4985;49.092;8.542;2023-08-24T05:32:47;8.10;;;3.10;;
9892;SDS011;4985;49.092;8.542;2023-08-24T05:35:14;10.02;;;3.12;;
9892;SDS011;4985;49.092;8.542;2023-08-24T05:37:40;5.10;;;3.20;;
9892;SDS011;4985;49.092;8.542;2023-08-24T05:40:07;4.37;;;3.30;;
9892;SDS011;4985;49.092;8.542;2023-08-24T05:42:35;7.07;;;2.70;;
9892;SDS011;4985;49.092;8.542;2023-08-24T05:45:03;3.30;;;2.95;;
9892;SDS011;4985;49.092;8.542;2023-08-24T05:47:29;15.00;;;3.08;;
9892;SDS011;4985;49.092;8.542;2023-08-24T05:49:56;6.80;;;3.33;;
9892;SDS011;4985;49.092;8.542;2023-08-24T05:52:23;5.62;;;3.05;;
9892;SDS011;4985;49.092;8.542;2023-08-24T05:54:49;7.30;;;3.53;;
9892;SDS011;4985;49.092;8.542;2023-08-24T05:57:16;14.20;;;3.90;;
9892;SDS011;4985;49.092;8.542;2023-08-24T05:59:44;16.65;;;3.62;;
9892;SDS011;4985;49.092;8.542;2023-08-24T06:02:10;8.77;;;3.33;;
9892;SDS011;4985;49.092;8.542;2023-08-24T06:04:37;11.82;;;3.78;;
9892;SDS011;4985;49.092;8.542;2023-08-24T06:07:03;8.80;;;3.78;;
9892;SDS011;4985;49.092;8.542;2023-08-24T06:09:30;7.65;;;3.30;;
9892;SDS011;4985;49.092;8.542;2023-08-24T06:11:57;6.10;;;3.40;;
9892;SDS011;4985;49.092;8.542;2023-08-24T06:14:24;9.00;;;3.67;;
9892;SDS011;4985;49.092;8.542;2023-08-24T06:16:51;7.25;;;3.05;;
9892;SDS011;4985;49.092;8.542;2023-08-24T06:19:18;5.72;;;3.03;;
9892;SDS011;4985;49.092;8.542;2023-08-24T06:21:45;7.47;;;2.80;;
9892;SDS011;4985;49.092;8.542;2023-08-24T06:24:11;3.80;;;2.75;;
9892;SDS011;4985;49.092;8.542;2023-08-24T06:26:38;3.25;;;2.80;;
9892;SDS011;4985;49.092;8.542;2023-08-24T06:29:05;3.33;;;2.87;;
9892;SDS011;4985;49.092;8.542;2023-08-24T06:31:31;5.97;;;2.78;;
9892;SDS011;4985;49.092;8.542;2023-08-24T06:33:59;2.83;;;2.50;;
9892;SDS011;4985;49.092;8.542;2023-08-24T06:36:26;2.72;;;2.42;;
9892;SDS011;4985;49.092;8.542;2023-08-24T06:38:53;3.45;;;2.62;;
9892;SDS011;4985;49.092;8.542;2023-08-24T06:41:20;4.15;;;2.62;;
9892;SDS011;4985;49.092;8.542;2023-08-24T06:43:46;4.50;;;2.58;;
9892;SDS011;4985;49.092;8.542;2023-08-24T06:46:13;4.62;;;2.70;;
9892;SDS011;4985;49.092;8.542;2023-08-24T06:48:40;4.03;;;2.80;;
9892;SDS011;4985;49.092;8.542;2023-08-24T06:51:09;4.70;;;2.70;;
9892;SDS011;4985;49.092;8.542;2023-08-24T06:53:36;3.05;;;2.50;;
9892;SDS011;4985;49.092;8.542;2023-08-24T06:56:03;3.50;;;2.47;;
9892;SDS011;4985;49.092;8.542;2023-08-24T06:58:30;3.80;;;2.67;;
9892;SDS011;4985;49.092;8.542;2023-08-24T07:00:56;3.90;;;2.58;;
9892;SDS011;4985;49.092;8.542;2023-08-24T07:03:23;5.25;;;2.75;;
9892;SDS011;4985;49.092;8.542;2023-08-24T07:05:50;5.37;;;2.65;;
9892;SDS011;4985;49.092;8.542;2023-08-24T07:08:18;8.20;;;2.60;;
9892;SDS011;4985;49.092;8.542;2023-08-24T07:10:44;3.50;;;2.62;;
9892;SDS011;4985;49.092;8.542;2023-08-24T07:13:11;3.65;;;3.05;;
9892;SDS011;4985;49.092;8.542;2023-08-24T07:15:38;3.87;;;2.42;;
9892;SDS011;4985;49.092;8.542;2023-08-24T07:18:04;3.80;;;2.45;;
9892;SDS011;4985;49.092;8.542;2023-08-24T07:20:32;4.43;;;2.50;;
9892;SDS011;4985;49.092;8.542;2023-08-24T07:22:59;4.12;;;2.60;;
9892;SDS011;4985;49.092;8.542;2023-08-24T07:25:27;6.62;;;2.58;;
9892;SDS011;4985;49.092;8.542;2023-08-24T07:27:54;3.58;;;2.28;;
9892;SDS011;4985;49.092;8.542;2023-08-24T07:30:23;6.40;;;2.53;;
9892;SDS011;4985;49.092;8.542;2023-08-24T07:32:51;3.78;;;2.90;;
9892;SDS011;4985;49.092;8.542;2023-08-24T07:35:17;3.92;;;2.40;;
9892;SDS011;4985;49.092;8.542;2023-08-24T07:37:45;3.50;;;2.60;;
9892;SDS011;4985;49.092;8.542;2023-08-24T07:40:13;2.78;;;2.40;;
9892;SDS011;4985;49.092;8.542;2023-08-24T07:42:44;4.00;;;2.35;;
9892;SDS011;4985;49.092;8.542;2023-08-24T07:45:10;3.92;;;2.60;;
9892;SDS011;4985;49.092;8.542;2023-08-24T07:47:39;6.90;;;2.50;;
9892;SDS011;4985;49.092;8.542;2023-08-24T07:50:06;6.37;;;2.53;;
9892;SDS011;4985;49.092;8.542;2023-08-24T07:52:33;12.90;;;3.25;;
9892;SDS011;4985;49.092;8.542;2023-08-24T07:54:59;5.30;;;2.35;;
9892;SDS011;4985;49.092;8.542;2023-08-24T07:57:29;5.87;;;2.72;;
9892;SDS011;4985;49.092;8.542;2023-08-24T07:59:57;15.93;;;3.60;;
9892;SDS011;4985;49.092;8.542;2023-08-24T08:02:24;4.87;;;2.87;;
9892;SDS011;4985;49.092;8.542;2023-08-24T08:04:51;3.90;;;2.70;;
9892;SDS011;4985;49.092;8.542;2023-08-24T08:07:21;3.17;;;2.45;;
9892;SDS011;4985;49.092;8.542;2023-08-24T08:09:48;3.33;;;2.45;;
9892;SDS011;4985;49.092;8.542;2023-08-24T08:12:15;3.15;;;2.33;;
9892;SDS011;4985;49.092;8.542;2023-08-24T08:14:41;3.47;;;2.60;;
9892;SDS011;4985;49.092;8.542;2023-08-24T08:17:09;5.18;;;2.83;;
9892;SDS011;4985;49.092;8.542;2023-08-24T08:19:36;3.47;;;2.65;;
9892;SDS011;4985;49.092;8.542;2023-08-24T08:22:03;4.03;;;2.65;;
9892;SDS011;4985;49.092;8.542;2023-08-24T08:24:30;4.03;;;2.33;;
9892;SDS011;4985;49.092;8.542;2023-08-24T08:26:56;4.55;;;2.22;;
9892;SDS011;4985;49.092;8.542;2023-08-24T08:29:23;5.78;;;2.83;;
9892;SDS011;4985;49.092;8.542;2023-08-24T08:31:50;6.95;;;3.05;;
9892;SDS011;4985;49.092;8.542;2023-08-24T08:34:17;5.60;;;2.53;;
9892;SDS011;4985;49.092;8.542;2023-08-24T08:36:44;3.87;;;2.65;;
9892;SDS011;4985;49.092;8.542;2023-08-24T08:39:11;4.85;;;2.85;;
9892;SDS011;4985;49.092;8.542;2023-08-24T08:41:39;2.72;;;2.42;;
9892;SDS011;4985;49.092;8.542;2023-08-24T08:44:08;4.12;;;2.42;;
9892;SDS011;4985;49.092;8.542;2023-08-24T08:46:37;3.37;;;2.45;;
9892;SDS011;4985;49.092;8.542;2023-08-24T08:49:04;3.62;;;2.53;;
9892;SDS011;4985;49.092;8.542;2023-08-24T08:51:35;3.17;;;2.85;;
9892;SDS011;4985;49.092;8.542;2023-08-24T08:54:02;5.15;;;2.58;;
9892;SDS011;4985;49.092;8.542;2023-08-24T08:56:30;6.37;;;2.55;;
9892;SDS011;4985;49.092;8.542;2023-08-24T08:58:57;4.15;;;2.55;;
9892;SDS011;4985;49.092;8.542;2023-08-24T09:01:25;3.87;;;2.78;;
9892;SDS011;4985;49.092;8.542;2023-08-24T09:03:53;3.37;;;2.60;;
9892;SDS011;4985;49.092;8.542;2023-08-24T09:06:20;3.33;;;2.60;;
9892;SDS011;4985;49.092;8.542;2023-08-24T09:08:49;3.30;;;2.40;;
9892;SDS011;4985;49.092;8.542;2023-08-24T09:11:15;4.72;;;2.72;;
9892;SDS011;4985;49.092;8.542;2023-08-24T09:13:43;2.75;;;2.45;;
9892;SDS011;4985;49.092;8.542;2023-08-24T09:16:10;5.93;;;2.72;;
9892;SDS011;4985;49.092;8.542;2023-08-24T09:18:41;5.57;;;2.95;;
9892;SDS011;4985;49.092;8.542;2023-08-24T09:21:09;4.82;;;2.85;;
9892;SDS011;4985;49.092;8.542;2023-08-24T09:23:37;4.55;;;2.80;;
9892;SDS011;4985;49.092;8.542;2023-08-24T09:26:10;8.23;;;3.25;;
9892;SDS011;4985;49.092;8.542;2023-08-24T09:28:37;6.30;;;3.03;;
9892;SDS011;4985;49.092;8.542;2023-08-24T09:31:04;6.18;;;2.58;;
9892;SDS011;4985;49.092;8.542;2023-08-24T09:33:31;4.55;;;2.92;;
9892;SDS011;4985;49.092;8.542;2023-08-24T09:35:58;7.53;;;3.30;;
9892;SDS011;4985;49.092;8.542;2023-08-24T09:38:28;7.05;;;2.90;;
9892;SDS011;4985;49.092;8.542;2023-08-24T09:40:55;8.48;;;3.03;;
9892;SDS011;4985;49.092;8.542;2023-08-24T09:43:23;7.12;;;3.65;;
9892;SDS011;4985;49.092;8.542;2023-08-24T09:45:51;4.30;;;2.90;;
9892;SDS011;4985;49.092;8.542;2023-08-24T09:48:18;5.00;;;2.70;;
9892;SDS011;4985;49.092;8.542;2023-08-24T09:50:46;3.80;;;3.00;;
9892;SDS011;4985;49.092;8.542;2023-08-24T09:53:15;3.78;;;2.92;;
9892;SDS011;4985;49.092;8.542;2023-08-24T09:55:44;7.85;;;3.20;;
9892;SDS011;4985;49.092;8.542;2023-08-24T09:58:19;6.50;;;3.33;;
9892;SDS011;4985;49.092;8.542;2023-08-24T10:00:47;4.75;;;3.10;;
9892;SDS011;4985;49.092;8.542;2023-08-24T10:03:16;4.80;;;3.12;;
9892;SDS011;4985;49.092;8.542;2023-08-24T10:05:45;5.20;;;3.00;;
9892;SDS011;4985;49.092;8.542;2023-08-24T10:08:19;4.15;;;3.08;;
9892;SDS011;4985;49.092;8.542;2023-08-24T10:10:47;4.18;;;2.90;;
9892;SDS011;4985;49.092;8.542;2023-08-24T10:13:20;5.80;;;3.00;;
9892;SDS011;4985;49.092;8.542;2023-08-24T10:15:54;3.85;;;3.10;;
9892;SDS011;4985;49.092;8.542;2023-08-24T10:18:22;3.25;;;2.70;;
9892;SDS011;4985;49.092;8.542;2023-08-24T10:20:49;6.20;;;3.05;;
9892;SDS011;4985;49.092;8.542;2023-08-24T10:23:17;6.70;;;2.97;;
9892;SDS011;4985;49.092;8.542;2023-08-24T10:25:46;3.75;;;2.90;;
9892;SDS011;4985;49.092;8.542;2023-08-24T10:28:14;4.82;;;3.10;;
9892;SDS011;4985;49.092;8.542;2023-08-24T10:30:42;5.72;;;3.37;;
9892;SDS011;4985;49.092;8.542;2023-08-24T10:33:11;4.45;;;3.00;;
9892;SDS011;4985;49.092;8.542;2023-08-24T10:35:40;4.35;;;2.95;;
9892;SDS011;4985;49.092;8.542;2023-08-24T10:38:08;4.20;;;2.90;;
9892;SDS011;4985;49.092;8.542;2023-08-24T10:40:49;4.47;;;2.97;;
9892;SDS011;4985;49.092;8.542;2023-08-24T10:43:17;7.60;;;2.97;;
9892;SDS011;4985;49.092;8.542;2023-08-24T10:45:57;3.85;;;3.12;;
9892;SDS011;4985;49.092;8.542;2023-08-24T10:48:26;3.42;;;2.90;;
9892;SDS011;4985;49.092;8.542;2023-08-24T10:53:45;3.58;;;2.67;;
9892;SDS011;4985;49.092;8.542;2023-08-24T10:56:12;4.45;;;3.47;;
9892;SDS011;4985;49.092;8.542;2023-08-24T10:58:39;7.10;;;3.55;;
9892;SDS011;4985;49.092;8.542;2023-08-24T11:01:06;4.65;;;3.30;;
9892;SDS011;4985;49.092;8.542;2023-08-24T11:03:34;3.75;;;3.05;;
9892;SDS011;4985;49.092;8.542;2023-08-24T11:06:01;5.20;;;3.20;;
9892;SDS011;4985;49.092;8.542;2023-08-24T11:11:18;4.60;;;3.25;;
9892;SDS011;4985;49.092;8.542;2023-08-24T11:16:42;4.55;;;3.20;;
9892;SDS011;4985;49.092;8.542;2023-08-24T11:19:11;6.05;;;3.12;;
9892;SDS011;4985;49.092;8.542;2023-08-24T11:21:39;5.07;;;3.47;;
9892;SDS011;4985;49.092;8.542;2023-08-24T11:24:06;7.43;;;3.50;;
9892;SDS011;4985;49.092;8.542;2023-08-24T11:26:34;4.25;;;3.15;;
9892;SDS011;4985;49.092;8.542;2023-08-24T11:29:04;5.97;;;3.53;;
9892;SDS011;4985;49.092;8.542;2023-08-24T11:31:32;7.37;;;3.80;;
9892;SDS011;4985;49.092;8.542;2023-08-24T11:33:59;6.95;;;3.50;;
9892;SDS011;4985;49.092;8.542;2023-08-24T11:36:27;6.45;;;3.20;;
9892;SDS011;4985;49.092;8.542;2023-08-24T11:38:56;3.50;;;2.95;;
9892;SDS011;4985;49.092;8.542;2023-08-24T11:41:23;5.12;;;3.75;;
9892;SDS011;4985;49.092;8.542;2023-08-24T11:43:57;5.85;;;3.30;;
9892;SDS011;4985;49.092;8.542;2023-08-24T11:46:25;6.15;;;3.25;;
9892;SDS011;4985;49.092;8.542;2023-08-24T11:48:53;5.90;;;3.65;;
9892;SDS011;4985;49.092;8.542;2023-08-24T11:51:20;4.25;;;3.17;;
9892;SDS011;4985;49.092;8.542;2023-08-24T11:53:48;4.32;;;3.33;;
9892;SDS011;4985;49.092;8.542;2023-08-24T11:56:15;8.60;;;4.00;;
9892;SDS011;4985;49.092;8.542;2023-08-24T11:58:43;6.05;;;3.30;;
9892;SDS011;4985;49.092;8.542;2023-08-24T12:01:14;5.10;;;3.67;;
9892;SDS011;4985;49.092;8.542;2023-08-24T12:03:42;6.30;;;3.30;;
9892;SDS011;4985;49.092;8.542;2023-08-24T12:06:12;7.68;;;3.65;;
9892;SDS011;4985;49.092;8.542;2023-08-24T12:08:39;7.68;;;3.53;;
9892;SDS011;4985;49.092;8.542;2023-08-24T12:11:12;3.40;;;3.10;;
9892;SDS011;4985;49.092;8.542;2023-08-24T12:13:42;4.57;;;3.45;;
9892;SDS011;4985;49.092;8.542;2023-08-24T12:16:10;5.97;;;3.67;;
9892;SDS011;4985;49.092;8.542;2023-08-24T12:18:46;6.28;;;3.78;;
9892;SDS011;4985;49.092;8.542;2023-08-24T12:21:14;4.70;;;3.40;;
9892;SDS011;4985;49.092;8.542;2023-08-24T12:23:41;6.62;;;4.07;;
9892;SDS011;4985;49.092;8.542;2023-08-24T12:26:07;6.82;;;3.60;;
9892;SDS011;4985;49.092;8.542;2023-08-24T12:28:35;6.07;;;4.50;;
9892;SDS011;4985;49.092;8.542;2023-08-24T12:31:02;6.10;;;3.67;;
9892;SDS011;4985;49.092;8.542;2023-08-24T12:33:29;6.78;;;3.92;;
9892;SDS011;4985;49.092;8.542;2023-08-24T12:35:56;6.00;;;3.75;;
9892;SDS011;4985;49.092;8.542;2023-08-24T12:38:24;6.43;;;4.25;;
9892;SDS011;4985;49.092;8.542;2023-08-24T12:40:52;6.40;;;3.67;;
9892;SDS011;4985;49.092;8.542;2023-08-24T12:43:19;9.55;;;4.03;;
9892;SDS011;4985;49.092;8.542;2023-08-24T12:45:48;7.85;;;4.28;;
9892;SDS011;4985;49.092;8.542;2023-08-24T12:48:14;5.18;;;3.72;;
9892;SDS011;4985;49.092;8.542;2023-08-24T12:50:41;7.00;;;4.10;;
9892;SDS011;4985;49.092;8.542;2023-08-24T12:53:08;5.45;;;3.65;;
9892;SDS011;4985;49.092;8.542;2023-08-24T12:55:35;5.00;;;3.80;;
9892;SDS011;4985;49.092;8.542;2023-08-24T12:58:02;6.85;;;4.32;;
9892;SDS011;4985;49.092;8.542;2023-08-24T13:00:29;6.65;;;4.10;;
9892;SDS011;4985;49.092;8.542;2023-08-24T13:02:57;6.18;;;3.85;;
9892;SDS011;4985;49.092;8.542;2023-08-24T13:05:24;10.65;;;4.45;;
9892;SDS011;4985;49.092;8.542;2023-08-24T13:07:51;5.85;;;4.30;;
9892;SDS011;4985;49.092;8.542;2023-08-24T13:10:17;8.38;;;4.00;;
9892;SDS011;4985;49.092;8.542;2023-08-24T13:12:44;6.90;;;4.05;;
9892;SDS011;4985;49.092;8.542;2023-08-24T13:15:10;4.47;;;3.80;;
9892;SDS011;4985;49.092;8.542;2023-08-24T13:17:37;6.35;;;4.07;;
9892;SDS011;4985;49.092;8.542;2023-08-24T13:20:06;4.93;;;4.18;;
9892;SDS011;4985;49.092;8.542;2023-08-24T13:22:33;4.53;;;3.92;;
9892;SDS011;4985;49.092;8.542;2023-08-24T13:25:00;6.18;;;4.37;;
9892;SDS011;4985;49.092;8.542;2023-08-24T13:27:26;7.68;;;4.15;;
9892;SDS011;4985;49.092;8.542;2023-08-24T13:29:53;7.47;;;4.47;;
9892;SDS011;4985;49.092;8.542;2023-08-24T13:32:21;5.82;;;4.03;;
9892;SDS011;4985;49.092;8.542;2023-08-24T13:34:48;5.85;;;4.10;;
9892;SDS011;4985;49.092;8.542;2023-08-24T13:37:16;7.78;;;4.53;;
9892;SDS011;4985;49.092;8.542;2023-08-24T13:39:43;4.97;;;4.12;;
9892;SDS011;4985;49.092;8.542;2023-08-24T13:42:09;7.60;;;4.90;;
9892;SDS011;4985;49.092;8.542;2023-08-24T13:44:36;6.97;;;4.53;;
9892;SDS011;4985;49.092;8.542;2023-08-24T13:47:03;6.62;;;4.70;;
9892;SDS011;4985;49.092;8.542;2023-08-24T13:49:29;7.97;;;4.10;;
9892;SDS011;4985;49.092;8.542;2023-08-24T13:51:56;6.90;;;4.30;;
9892;SDS011;4985;49.092;8.542;2023-08-24T13:54:24;5.97;;;4.35;;
9892;SDS011;4985;49.092;8.542;2023-08-24T13:56:51;7.70;;;4.43;;
9892;SDS011;4985;49.092;8.542;2023-08-24T13:59:19;7.62;;;4.53;;
9892;SDS011;4985;49.092;8.542;2023-08-24T14:01:46;5.85;;;4.57;;
9892;SDS011;4985;49.092;8.542;2023-08-24T14:04:13;6.95;;;4.25;;
9892;SDS011;4985;49.092;8.542;2023-08-24T14:06:39;7.28;;;4.95;;
9892;SDS011;4985;49.092;8.542;2023-08-24T14:09:06;12.15;;;4.65;;
9892;SDS011;4985;49.092;8.542;2023-08-24T14:11:34;6.95;;;4.43;;
9892;SDS011;4985;49.092;8.542;2023-08-24T14:14:00;5.12;;;4.50;;
9892;SDS011;4985;49.092;8.542;2023-08-24T14:16:27;5.00;;;4.43;;
9892;SDS011;4985;49.092;8.542;2023-08-24T14:18:53;7.70;;;4.65;;
9892;SDS011;4985;49.092;8.542;2023-08-24T14:21:20;8.60;;;4.32;;
9892;SDS011;4985;49.092;8.542;2023-08-24T14:23:48;6.37;;;4.55;;
9892;SDS011;4985;49.092;8.542;2023-08-24T14:26:15;7.25;;;4.50;;
9892;SDS011;4985;49.092;8.542;2023-08-24T14:28:49;5.25;;;3.70;;
9892;SDS011;4985;49.092;8.542;2023-08-24T14:31:18;4.87;;;4.00;;
9892;SDS011;4985;49.092;8.542;2023-08-24T14:33:45;8.68;;;4.60;;
9892;SDS011;4985;49.092;8.542;2023-08-24T14:36:12;8.38;;;5.30;;
9892;SDS011;4985;49.092;8.542;2023-08-24T14:38:39;5.47;;;3.90;;
9892;SDS011;4985;49.092;8.542;2023-08-24T14:41:06;6.43;;;4.55;;
9892;SDS011;4985;49.092;8.542;2023-08-24T14:43:33;9.23;;;5.35;;
9892;SDS011;4985;49.092;8.542;2023-08-24T14:46:01;6.90;;;4.65;;
9892;SDS011;4985;49.092;8.542;2023-08-24T14:48:28;5.37;;;3.45;;
9892;SDS011;4985;49.092;8.542;2023-08-24T14:50:55;9.60;;;5.15;;
9892;SDS011;4985;49.092;8.542;2023-08-24T14:53:23;8.82;;;5.75;;
9892;SDS011;4985;49.092;8.542;2023-08-24T14:55:49;6.50;;;5.00;;
9892;SDS011;4985;49.092;8.542;2023-08-24T14:58:16;6.95;;;4.50;;
9892;SDS011;4985;49.092;8.542;2023-08-24T15:00:43;7.75;;;5.10;;
9892;SDS011;4985;49.092;8.542;2023-08-24T15:03:12;6.43;;;4.40;;
9892;SDS011;4985;49.092;8.542;2023-08-24T15:05:42;6.37;;;4.45;;
9892;SDS011;4985;49.092;8.542;2023-08-24T15:08:09;8.10;;;4.93;;
9892;SDS011;4985;49.092;8.542;2023-08-24T15:10:36;6.35;;;4.78;;
9892;SDS011;4985;49.092;8.542;2023-08-24T15:13:03;6.90;;;4.78;;
9892;SDS011;4985;49.092;8.542;2023-08-24T15:15:29;9.45;;;5.68;;
9892;SDS011;4985;49.092;8.542;2023-08-24T15:17:56;8.63;;;4.53;;
9892;SDS011;4985;49.092;8.542;2023-08-24T15:20:24;7.22;;;3.92;;
9892;SDS011;4985;49.092;8.542;2023-08-24T15:22:50;6.22;;;4.62;;
9892;SDS011;4985;49.092;8.542;2023-08-24T15:25:17;6.62;;;4.40;;